Home > Products > Valid Products > TAF

000
FTUS44 KSJT 271700
TAFJCT
TAF
KJCT 271738Z 2718/2818 27010KT P6SM SKC
     FM280000 VRB06KT P6SM SKC
     FM281500 20010G16KT P6SM SKC=



000
FTUS44 KSJT 271700
TAFABI
TAF
KABI 271738Z 2718/2818 30010KT P6SM SKC
     FM280000 VRB06KT P6SM SKC
     FM281500 20012G18KT P6SM SKC=



000
FTUS44 KSJT 271700
TAFSJT
TAF
KSJT 271738Z 2718/2818 27010KT P6SM SKC
     FM280000 VRB06KT P6SM SKC
     FM281500 20011G17KT P6SM SKC=



000
FTUS44 KSJT 271700
TAFSJT
TAF
KSJT 271738Z 2718/2818 27010KT P6SM SKC
     FM280000 VRB06KT P6SM SKC
     FM281500 20011G17KT P6SM SKC=



000
FTUS44 KSJT 271700
TAFABI
TAF
KABI 271738Z 2718/2818 30010KT P6SM SKC
     FM280000 VRB06KT P6SM SKC
     FM281500 20012G18KT P6SM SKC=



000
FTUS44 KSJT 271700
TAFJCT
TAF
KJCT 271738Z 2718/2818 27010KT P6SM SKC
     FM280000 VRB06KT P6SM SKC
     FM281500 20010G16KT P6SM SKC=



000
FTUS44 KSJT 271100
TAFSJT
TAF
KSJT 271120Z 2712/2812 24005KT P6SM SKC
     FM271500 24011KT P6SM SKC
     FM280000 19008KT P6SM SKC=



000
FTUS44 KSJT 271100
TAFABI
TAF
KABI 271120Z 2712/2812 24008KT P6SM SKC
     FM271500 30010KT P6SM FEW250
     FM272100 VRB05KT P6SM FEW250
     FM280400 14009KT P6SM SKC=



000
FTUS44 KSJT 271100
TAFJCT
TAF
KJCT 271120Z 2712/2812 VRB04KT P6SM SKC
     FM271600 24008KT P6SM SKC
     FM280100 VRB03KT P6SM SKC=



000
FTUS44 KSJT 270800 AAA
TAFABI
TAF AMD
KABI 270825Z 2708/2806 19007KT P6SM SKC
     FM271500 29011KT P6SM SKC=



000
FTUS44 KSJT 270500
TAFSJT
TAF
KSJT 270520Z 2706/2806 VRB03KT P6SM SKC
     FM271500 24011KT P6SM SKC=



000
FTUS44 KSJT 270500
TAFSJT
TAF
KSJT 270520Z 2706/2806 VRB03KT P6SM SKC
     FM271500 24011KT P6SM SKC=



000
FTUS44 KSJT 270500
TAFJCT
TAF
KJCT 270520Z 2706/2806 VRB03KT P6SM SKC
     FM271500 25008KT P6SM SKC=



000
FTUS44 KSJT 270500
TAFABI
TAF
KABI 270520Z 2706/2806 VRB03KT P6SM SKC
     FM271500 27011KT P6SM SKC=



000
FTUS44 KSJT 270500
TAFABI
TAF
KABI 270520Z 2706/2806 VRB03KT P6SM SKC
     FM271500 27011KT P6SM SKC=



000
FTUS44 KSJT 270500
TAFJCT
TAF
KJCT 270520Z 2706/2806 VRB03KT P6SM SKC
     FM271500 25008KT P6SM SKC=



000
FTUS44 KSJT 262300
TAFSJT
TAF
KSJT 262320Z 2700/2724 35007KT P6SM SKC
     FM271500 24011KT P6SM SKC=



000
FTUS44 KSJT 262300
TAFABI
TAF
KABI 262320Z 2700/2724 36007KT P6SM SKC
     FM271500 27011KT P6SM SKC=



000
FTUS44 KSJT 262300
TAFJCT
TAF
KJCT 262320Z 2700/2724 35008KT P6SM SKC
     FM271500 25008KT P6SM SKC=



000
FTUS44 KSJT 262300
TAFJCT
TAF
KJCT 262320Z 2700/2724 35008KT P6SM SKC
     FM271500 25008KT P6SM SKC=



000
FTUS44 KSJT 262300
TAFABI
TAF
KABI 262320Z 2700/2724 36007KT P6SM SKC
     FM271500 27011KT P6SM SKC=



000
FTUS44 KSJT 262300
TAFSJT
TAF
KSJT 262320Z 2700/2724 35007KT P6SM SKC
     FM271500 24011KT P6SM SKC=



000
FTUS44 KSJT 261700
TAFSJT
TAF
KSJT 261737Z 2618/2718 36011G17KT P6SM SKC
     FM270000 VRB06KT P6SM SKC
     FM271500 24011KT P6SM SKC=



000
FTUS44 KSJT 261700
TAFABI
TAF
KABI 261737Z 2618/2718 01011G17KT P6SM SKC
     FM270000 VRB06KT P6SM SKC
     FM271500 27011KT P6SM SKC=



000
FTUS44 KSJT 261700
TAFJCT
TAF
KJCT 261737Z 2618/2718 01014G20KT P6SM SKC
     FM270000 VRB06KT P6SM SKC
     FM271500 25008KT P6SM SKC=



000
FTUS44 KSJT 261700
TAFSJT
TAF
KSJT 261737Z 2618/2718 36011G17KT P6SM SKC
     FM270000 VRB06KT P6SM SKC
     FM271500 24011KT P6SM SKC=



000
FTUS44 KSJT 261700
TAFJCT
TAF
KJCT 261737Z 2618/2718 01014G20KT P6SM SKC
     FM270000 VRB06KT P6SM SKC
     FM271500 25008KT P6SM SKC=



000
FTUS44 KSJT 261700
TAFABI
TAF
KABI 261737Z 2618/2718 01011G17KT P6SM SKC
     FM270000 VRB06KT P6SM SKC
     FM271500 27011KT P6SM SKC=



000
FTUS44 KSJT 261500 AAB
TAFJCT
TAF AMD
KJCT 261550Z 2616/2712 01014G20KT P6SM SCT025
     FM262000 01010G16KT P6SM SKC
     FM270000 36004KT P6SM SKC=



000
FTUS44 KSJT 261400 AAA
TAFJCT
TAF AMD
KJCT 261456Z 2615/2712 01014G20KT P6SM BKN025
     FM261600 01014G20KT P6SM SKC
     FM262000 01010G16KT P6SM SKC
     FM270000 36004KT P6SM SKC=



000
FTUS44 KSJT 261400 AAA
TAFABI
TAF AMD
KABI 261452Z 2615/2712 36014G20KT P6SM SKC
     FM270000 VRB06KT P6SM SKC=



000
FTUS44 KSJT 261400 AAA
TAFABI
TAF AMD
KABI 261452Z 2615/2712 36014G20KT P6SM SKC
     FM270000 VRB06KT P6SM SKC=



000
FTUS44 KSJT 261400 AAA
TAFSJT
TAF AMD
KSJT 261451Z 2615/2712 36011G17KT P6SM SKC
     FM270000 VRB06KT P6SM SKC=



000
FTUS44 KSJT 261100
TAFABI
TAF
KABI 261120Z 2612/2712 36018G26KT P6SM SCT025
     FM262000 36012G19KT P6SM SKC
     FM270000 VRB06KT P6SM SKC=



000
FTUS44 KSJT 261100
TAFJCT
TAF
KJCT 261120Z 2612/2712 01018G28KT P6SM BKN025
     FM261400 36017G24KT P6SM FEW025
     FM261600 01015G25KT P6SM SKC
     FM262000 36012G19KT P6SM SKC
     FM270000 36004KT P6SM SKC=



000
FTUS44 KSJT 261100
TAFSJT
TAF
KSJT 261120Z 2612/2712 36016G23KT P6SM FEW025 SCT250
     FM262000 35013G20KT P6SM SKC
     FM270000 VRB05KT P6SM SKC=



000
FTUS44 KSJT 260900 AAB
TAFSJT
TAF AMD
KSJT 260952Z 2610/2706 01014G22KT P6SM SCT025 BKN250
     FM261000 36018G28KT P6SM SCT025 BKN250
     FM261500 35016G22KT P6SM SKC
     FM262300 36005KT P6SM SKC=



000
FTUS44 KSJT 260800 AAA
TAFJCT
TAF AMD
KJCT 260839Z 2609/2706 36022G30KT P6SM SCT020
     FM261200 01018G28KT P6SM BKN025
     FM261600 01015G25KT P6SM SKC
     FM262300 36005KT P6SM SKC=



000
FTUS44 KSJT 260800 AAA
TAFJCT
TAF AMD
KJCT 260839Z 2609/2706 36022G30KT P6SM SCT020
     FM261200 01018G28KT P6SM BKN025
     FM261600 01015G25KT P6SM SKC
     FM262300 36005KT P6SM SKC=



000
FTUS44 KSJT 260600 AAA
TAFSJT
TAF AMD
KSJT 260659Z 2607/2706 36018G24KT P6SM SCT025 BKN250
     FM261000 36018G28KT P6SM SCT025 BKN250
     FM261500 35016G22KT P6SM SKC
     FM262300 36005KT P6SM SKC=



000
FTUS44 KSJT 260600 AAA
TAFSJT
TAF AMD
KSJT 260659Z 2607/2706 36018G24KT P6SM SCT025 BKN250
     FM261000 36018G28KT P6SM SCT025 BKN250
     FM261500 35016G22KT P6SM SKC
     FM262300 36005KT P6SM SKC=



000
FTUS44 KSJT 260500
TAFJCT
TAF
KJCT 260520Z 2606/2706 17006KT P6SM SCT015
     FM260800 36025G35KT P6SM VCTS BKN015CB
     FM261200 01018G28KT P6SM BKN025
     FM261600 01015G25KT P6SM SKC
     FM262300 36005KT P6SM SKC=



000
FTUS44 KSJT 260500
TAFSJT
TAF
KSJT 260520Z 2606/2706 36028G40KT P6SM SCT025 BKN250
     FM261000 36018G28KT P6SM SCT025 BKN250
     FM261500 35016G22KT P6SM SKC
     FM262300 36005KT P6SM SKC=



000
FTUS44 KSJT 260500
TAFABI
TAF
KABI 260520Z 2606/2706 35030G40KT P6SM BKN025
     FM260800 36018G28KT P6SM BKN025
     FM261500 36015G22KT P6SM SKC
     FM262300 36005KT P6SM SKC=



000
FTUS44 KSJT 260300 AAA
TAFSJT
TAF AMD
KSJT 260351Z 2604/2624 20008KT P6SM SCT100
     FM260500 36028G40KT P6SM SCT250
     FM261500 35016G22KT P6SM SKC=



000
FTUS44 KSJT 260300 AAA
TAFSJT
TAF AMD
KSJT 260351Z 2604/2624 20008KT P6SM SCT100
     FM260500 36028G40KT P6SM SCT250
     FM261500 35016G22KT P6SM SKC=



000
FTUS44 KSJT 260200 AAA
TAFABI
TAF AMD
KABI 260238Z 2603/2624 20012KT P6SM SCT100
     FM260315 35030G40KT P6SM SCT020 SCT250
     FM261500 36016G22KT P6SM SKC=



000
FTUS44 KSJT 260200 AAA
TAFABI
TAF AMD
KABI 260238Z 2603/2624 20012KT P6SM SCT100
     FM260315 35030G40KT P6SM SCT020 SCT250
     FM261500 36016G22KT P6SM SKC=



000
FTUS44 KSJT 252300
TAFSJT
TAF
KSJT 252321Z 2600/2624 27010KT P6SM SCT250
     FM260200 20008KT P6SM SCT100
     FM260600 36017G25KT P6SM SCT020 SCT250
     FM261500 35016G22KT P6SM SKC=



000
FTUS44 KSJT 252300
TAFJCT
TAF
KJCT 252321Z 2600/2624 20010KT P6SM SCT080
     FM260300 17006KT P6SM BKN015
     FM260800 01014G21KT P6SM VCTS OVC015CB
     FM261300 01014G20KT P6SM SCT250=



000
FTUS44 KSJT 252300
TAFABI
TAF
KABI 252321Z 2600/2624 20012KT P6SM SCT100
     FM260400 35018G25KT P6SM SCT020 SCT250
     FM261500 36016G22KT P6SM SKC=



000
FTUS44 KSJT 252300
TAFJCT
TAF
KJCT 252321Z 2600/2624 20010KT P6SM SCT080
     FM260300 17006KT P6SM BKN015
     FM260800 01014G21KT P6SM VCTS OVC015CB
     FM261300 01014G20KT P6SM SCT250=



000
FTUS44 KSJT 252300
TAFABI
TAF
KABI 252321Z 2600/2624 20012KT P6SM SCT100
     FM260400 35018G25KT P6SM SCT020 SCT250
     FM261500 36016G22KT P6SM SKC=



000
FTUS44 KSJT 252300
TAFSJT
TAF
KSJT 252321Z 2600/2624 27010KT P6SM SCT250
     FM260200 20008KT P6SM SCT100
     FM260600 36017G25KT P6SM SCT020 SCT250
     FM261500 35016G22KT P6SM SKC=



000
FTUS44 KSJT 251800 RRA
TAFSJT
TAF
KSJT 251803Z 2518/2618 20011G16KT P6SM FEW150
     FM251900 21014G22KT P6SM FEW150
     FM260000 20010KT P6SM SCT250
     FM260500 36017G25KT P6SM SCT020 SCT250
     FM261500 35016G22KT P6SM SKC=



000
FTUS44 KSJT 251800 RRA
TAFJCT
TAF
KJCT 251803Z 2518/2618 23007KT P6SM SCT150
     FM251900 22011G19KT P6SM SCT150
     FM260400 19006KT P6SM BKN015
     FM260700 01014G21KT P6SM VCTS OVC015CB
     FM261500 01014G20KT P6SM SCT250=



000
FTUS44 KSJT 251800 RRA
TAFJCT
TAF
KJCT 251803Z 2518/2618 23007KT P6SM SCT150
     FM251900 22011G19KT P6SM SCT150
     FM260400 19006KT P6SM BKN015
     FM260700 01014G21KT P6SM VCTS OVC015CB
     FM261500 01014G20KT P6SM SCT250=



000
FTUS44 KSJT 251800 RRA
TAFABI
TAF
KABI 251803Z 2518/2618 21020G30KT P6SM FEW250
     FM260300 34018G25KT P6SM SCT020 SCT250
     FM261500 36016G22KT P6SM SKC=



000
FTUS44 KSJT 251800 RRA
TAFSJT
TAF
KSJT 251803Z 2518/2618 20011G16KT P6SM FEW150
     FM251900 21014G22KT P6SM FEW150
     FM260000 20010KT P6SM SCT250
     FM260500 36017G25KT P6SM SCT020 SCT250
     FM261500 35016G22KT P6SM SKC=



000
FTUS44 KSJT 251800 RRA
TAFABI
TAF
KABI 251803Z 2518/2618 21020G30KT P6SM FEW250
     FM260300 34018G25KT P6SM SCT020 SCT250
     FM261500 36016G22KT P6SM SKC=



000
FTUS44 KSJT 251700 AAB
TAFSJT
TAF AMD
KSJT 251715Z 2517/2612 20011G16KT P6SM FEW150
     FM251900 21014G22KT P6SM FEW150
     FM260000 20010KT P6SM SCT250
     FM260500 36017G25KT P6SM SCT020 SCT250=



000
FTUS44 KSJT 251700 AAB
TAFSJT
TAF AMD
KSJT 251715Z 2517/2612 20011G16KT P6SM FEW150
     FM251900 21014G22KT P6SM FEW150
     FM260000 20010KT P6SM SCT250
     FM260500 36017G25KT P6SM SCT020 SCT250=



000
FTUS44 KSJT 251700 AAA
TAFABI
TAF AMD
KABI 251710Z 2517/2612 21020G30KT P6SM FEW250
     FM260300 34018G25KT P6SM SCT020 SCT250=



000
FTUS44 KSJT 251700 AAA
TAFABI
TAF AMD
KABI 251710Z 2517/2612 21020G30KT P6SM FEW250
     FM260300 34018G25KT P6SM SCT020 SCT250=



000
FTUS44 KSJT 251600 AAC
TAFJCT
TAF AMD
KJCT 251657Z 2517/2612 23007KT P6SM SCT150
     FM251800 22011G19KT P6SM SCT150
     FM260400 19006KT P6SM BKN015
     FM260700 01014G21KT P6SM VCTS OVC015CB=



000
FTUS44 KSJT 251600 AAC
TAFJCT
TAF AMD
KJCT 251657Z 2517/2612 23007KT P6SM SCT150
     FM251800 22011G19KT P6SM SCT150
     FM260400 19006KT P6SM BKN015
     FM260700 01014G21KT P6SM VCTS OVC015CB=



000
FTUS44 KSJT 251600 AAB
TAFJCT
TAF AMD
KJCT 251635Z 2517/2612 22010G16KT P6SM SCT150
     FM251800 22011G19KT P6SM SCT150
     FM260400 19006KT P6SM BKN015
     FM260700 01014G21KT P6SM VCTS OVC015CB=



000
FTUS44 KSJT 251600 AAA
TAFSJT
TAF AMD
KSJT 251633Z 2517/2612 19011G16KT P6SM FEW150
     FM251800 21014G22KT P6SM FEW150
     FM260000 20010KT P6SM SCT250
     FM260500 36017G25KT P6SM SCT020 SCT250=



000
FTUS44 KSJT 251600 AAA
TAFSJT
TAF AMD
KSJT 251633Z 2517/2612 19011G16KT P6SM FEW150
     FM251800 21014G22KT P6SM FEW150
     FM260000 20010KT P6SM SCT250
     FM260500 36017G25KT P6SM SCT020 SCT250=



000
FTUS44 KSJT 251400 AAA
TAFJCT
TAF AMD
KJCT 251400Z 2514/2612 VRB03KT P6SM SKC
     FM251600 20011G19KT P6SM SKC
     FM260400 19006KT P6SM BKN015
     FM260700 01014G21KT P6SM VCTS OVC015CB=



000
FTUS44 KSJT 251100
TAFABI
TAF
KABI 251140Z 2512/2612 21011KT P6SM FEW250
     FM251400 21015G23KT P6SM FEW250
     FM260300 34018G25KT P6SM SCT020 SCT250=



000
FTUS44 KSJT 251100
TAFJCT
TAF
KJCT 251140Z 2512/2612 VRB03KT P6SM FEW010
     FM251230 19005KT P6SM BKN010
     FM251600 20011G19KT P6SM FEW250
     FM260400 19006KT P6SM BKN015
     FM260700 01014G21KT P6SM VCTS OVC015CB=



000
FTUS44 KSJT 251100
TAFABI
TAF
KABI 251140Z 2512/2612 21011KT P6SM FEW250
     FM251400 21015G23KT P6SM FEW250
     FM260300 34018G25KT P6SM SCT020 SCT250=



000
FTUS44 KSJT 251100
TAFSJT
TAF
KSJT 251140Z 2512/2612 19011KT P6SM FEW250
     FM251500 21014G22KT P6SM FEW250
     FM260000 20010KT P6SM SCT250
     FM260500 36017G25KT P6SM SCT020 SCT250=



000
FTUS44 KSJT 251100
TAFJCT
TAF
KJCT 251140Z 2512/2612 VRB03KT P6SM FEW010
     FM251230 19005KT P6SM BKN010
     FM251600 20011G19KT P6SM FEW250
     FM260400 19006KT P6SM BKN015
     FM260700 01014G21KT P6SM VCTS OVC015CB=



000
FTUS44 KSJT 251100
TAFSJT
TAF
KSJT 251140Z 2512/2612 19011KT P6SM FEW250
     FM251500 21014G22KT P6SM FEW250
     FM260000 20010KT P6SM SCT250
     FM260500 36017G25KT P6SM SCT020 SCT250=



000
FTUS44 KSJT 251100 AAA
TAFJCT
TAF AMD
KJCT 251101Z 2511/2606 18004KT P6SM FEW250
     FM251200 19007KT 4SM BR BKN010
     FM251600 20011G19KT P6SM FEW250=



000
FTUS44 KSJT 250800 AAA
TAFABI
TAF AMD
KABI 250849Z 2509/2606 21011KT P6SM FEW250
     FM251400 21015G25KT P6SM FEW250
     FM260300 34012KT P6SM SCT250=



000
FTUS44 KSJT 250800 AAA
TAFSJT
TAF AMD
KSJT 250849Z 2509/2606 19011KT P6SM FEW250
      TEMPO 2513/2515 BKN012
     FM251500 20014G22KT P6SM FEW250=



000
FTUS44 KSJT 250500
TAFABI
TAF
KABI 250520Z 2506/2606 18007KT P6SM FEW250
     FM251400 21015G25KT P6SM FEW250
     FM260300 34012KT P6SM SCT250=



000
FTUS44 KSJT 250500
TAFJCT
TAF
KJCT 250520Z 2506/2606 18004KT P6SM FEW250
     FM251100 19007KT 4SM BR BKN010
     FM251600 20011G19KT P6SM FEW250=



000
FTUS44 KSJT 250500
TAFABI
TAF
KABI 250520Z 2506/2606 18007KT P6SM FEW250
     FM251400 21015G25KT P6SM FEW250
     FM260300 34012KT P6SM SCT250=



000
FTUS44 KSJT 250500
TAFSJT
TAF
KSJT 250520Z 2506/2606 19007KT P6SM FEW250
      TEMPO 2513/2515 BKN012
     FM251500 20014G22KT P6SM FEW250=



000
FTUS44 KSJT 250500
TAFSJT
TAF
KSJT 250520Z 2506/2606 19007KT P6SM FEW250
      TEMPO 2513/2515 BKN012
     FM251500 20014G22KT P6SM FEW250=



000
FTUS44 KSJT 250500
TAFJCT
TAF
KJCT 250520Z 2506/2606 18004KT P6SM FEW250
     FM251100 19007KT 4SM BR BKN010
     FM251600 20011G19KT P6SM FEW250=



000
FTUS44 KSJT 242300
TAFJCT
TAF
KJCT 242321Z 2500/2524 18004KT P6SM FEW250
     FM251000 19007KT 4SM BR BKN010
     FM251600 20011G19KT P6SM FEW250=



000
FTUS44 KSJT 242300
TAFSJT
TAF
KSJT 242321Z 2500/2524 19007KT P6SM FEW250
     FM251300 20008KT P6SM BKN012
     FM251500 20014G22KT P6SM FEW250=



000
FTUS44 KSJT 242300
TAFSJT
TAF
KSJT 242321Z 2500/2524 19007KT P6SM FEW250
     FM251300 20008KT P6SM BKN012
     FM251500 20014G22KT P6SM FEW250=



000
FTUS44 KSJT 242300
TAFABI
TAF
KABI 242321Z 2500/2524 18007KT P6SM FEW250
     FM251400 20015G25KT P6SM FEW250=



000
FTUS44 KSJT 242300
TAFJCT
TAF
KJCT 242321Z 2500/2524 18004KT P6SM FEW250
     FM251000 19007KT 4SM BR BKN010
     FM251600 20011G19KT P6SM FEW250=



000
FTUS44 KSJT 242300
TAFABI
TAF
KABI 242321Z 2500/2524 18007KT P6SM FEW250
     FM251400 20015G25KT P6SM FEW250=



    US Dept of Commerce
    National Oceanic and Atmospheric Administration
    National Weather Service
    1325 East West Highway
    Silver Spring, MD 20910
    Page Author: NWS Internet Services Team
Disclaimer
Information Quality
Credits
Glossary
Privacy Policy
Freedom of Information Act (FOIA)
About Us
Career Opportunities